Time;durP1;ratioP1;P1;durP2;ratioP2;P2;SDS_P1;SDS_P2;PMS_P1;PMS_P2;Temp;Humidity;BMP_temperature;BMP_pressure;BME280_temperature;BME280_humidity;BME280_pressure;Samples;Min_cycle;Max_cycle;Signal;HPM_P1;HPM_P2
2023/07/01 00:00:25;;;;;;;5.10;4.50;;;;;;;23.14;69.68;99029.16;5032471;28;20578;-64
2023/07/01 00:02:52;;;;;;;4.40;4.00;;;;;;;23.25;69.60;99019.84;5032872;28;20682;-63
2023/07/01 00:05:21;;;;;;;4.50;4.20;;;;;;;23.24;69.82;99017.41;5032271;28;20198;-64
2023/07/01 00:07:48;;;;;;;4.53;4.33;;;;;;;23.16;70.44;99018.81;5032660;28;20253;-64
2023/07/01 00:10:15;;;;;;;4.20;4.00;;;;;;;23.12;70.19;99016.97;5032340;28;20736;-64
2023/07/01 00:12:42;;;;;;;28.23;5.70;;;;;;;23.14;70.86;99018.31;5032278;28;20199;-64
2023/07/01 00:15:09;;;;;;;7.30;4.67;;;;;;;23.30;69.64;99025.19;5032511;28;20260;-63
2023/07/01 00:17:36;;;;;;;5.00;4.60;;;;;;;23.28;69.33;99016.53;5032446;28;20249;-63
2023/07/01 00:20:03;;;;;;;5.33;4.70;;;;;;;23.17;69.61;99019.63;5032288;28;20738;-64
2023/07/01 00:22:31;;;;;;;6.17;4.90;;;;;;;23.07;70.00;99017.03;5031359;28;20274;-66
2023/07/01 00:24:58;;;;;;;5.00;4.70;;;;;;;22.98;70.85;99005.19;5031385;28;20195;-64
2023/07/01 00:27:24;;;;;;;5.27;4.77;;;;;;;23.04;70.88;99007.59;5032416;28;20636;-64
2023/07/01 00:29:51;;;;;;;5.30;5.00;;;;;;;23.11;70.07;99010.75;5032495;28;20261;-64
2023/07/01 00:32:18;;;;;;;5.53;5.03;;;;;;;23.03;70.37;99010.59;5031440;28;20225;-65
2023/07/01 00:34:45;;;;;;;5.37;4.90;;;;;;;22.99;70.64;99004.91;5031090;28;20256;-63
2023/07/01 00:37:12;;;;;;;5.20;4.70;;;;;;;23.14;70.23;99012.06;5031806;28;20284;-64
2023/07/01 00:39:40;;;;;;;5.07;4.60;;;;;;;23.28;68.93;99016.53;5031915;28;20203;-63
2023/07/01 00:42:07;;;;;;;5.50;5.17;;;;;;;23.27;68.49;99017.63;5032171;28;20195;-63
2023/07/01 00:44:33;;;;;;;5.70;4.93;;;;;;;23.24;68.42;99026.34;5030959;28;20688;-63
2023/07/01 00:47:00;;;;;;;7.33;5.33;;;;;;;23.11;69.33;99020.78;5032099;28;20195;-63
2023/07/01 00:49:27;;;;;;;5.23;4.73;;;;;;;23.07;69.99;99020.53;5031720;28;20199;-63
2023/07/01 00:51:54;;;;;;;5.57;4.90;;;;;;;23.10;69.48;99028.09;5031721;28;20194;-62
2023/07/01 00:54:22;;;;;;;5.20;4.90;;;;;;;23.12;69.38;99023.19;5031434;28;20248;-63
2023/07/01 00:56:50;;;;;;;5.33;5.03;;;;;;;23.18;69.32;99019.34;5031633;28;20273;-63
2023/07/01 00:59:17;;;;;;;5.30;4.90;;;;;;;23.08;68.76;98996.97;5032038;28;20230;-64
2023/07/01 01:01:47;;;;;;;5.47;5.07;;;;;;;23.16;69.08;99021.53;5032079;28;20249;-65
2023/07/01 01:04:20;;;;;;;6.17;4.33;;;;;;;23.19;69.89;99018.25;5031106;28;20187;-65
2023/07/01 01:06:53;;;;;;;5.57;5.07;;;;;;;23.32;69.53;99016.78;5031565;28;20188;-64
2023/07/01 01:09:25;;;;;;;6.20;4.50;;;;;;;23.55;68.78;99016.75;5031980;28;20243;-65
2023/07/01 01:11:55;;;;;;;9.90;4.53;;;;;;;23.73;67.17;99007.00;5031638;28;20187;-65
2023/07/01 01:14:23;;;;;;;6.37;4.57;;;;;;;23.84;66.45;99006.56;5030949;28;20627;-64
2023/07/01 01:16:50;;;;;;;5.33;4.90;;;;;;;23.90;66.25;99013.53;5031405;28;20704;-64
2023/07/01 01:19:25;;;;;;;5.37;4.80;;;;;;;23.86;66.08;99009.81;5031867;28;20620;-65
2023/07/01 01:22:05;;;;;;;5.37;4.97;;;;;;;23.92;65.37;99011.34;5031471;28;20196;-62
2023/07/01 01:24:35;;;;;;;6.40;5.10;;;;;;;23.91;66.18;99009.75;5030804;28;20280;-64
2023/07/01 01:27:04;;;;;;;4.57;4.37;;;;;;;23.86;65.32;99009.81;5031648;28;20238;-65
2023/07/01 01:29:33;;;;;;;4.87;4.57;;;;;;;23.86;66.10;99009.81;5031767;28;20247;-64
2023/07/01 01:31:59;;;;;;;4.63;4.23;;;;;;;23.99;65.89;99009.09;5031198;28;20380;-64
2023/07/01 01:34:26;;;;;;;5.23;4.83;;;;;;;24.09;64.23;99014.34;5031737;28;20198;-65
2023/07/01 01:36:57;;;;;;;4.43;4.03;;;;;;;23.97;65.01;99011.28;5031139;28;20228;-64
2023/07/01 01:39:28;;;;;;;4.97;4.67;;;;;;;23.97;65.35;99007.78;5031609;28;20255;-64
2023/07/01 01:42:01;;;;;;;4.97;4.67;;;;;;;23.92;65.08;99005.94;5031026;28;20251;-64
2023/07/01 01:44:36;;;;;;;5.87;5.23;;;;;;;23.89;63.96;99017.34;5031338;28;20238;-64
2023/07/01 01:47:03;;;;;;;7.60;5.43;;;;;;;23.69;64.90;99006.78;5034292;28;20195;-64
2023/07/01 01:49:32;;;;;;;5.83;5.43;;;;;;;23.47;65.52;99017.38;5035410;28;20193;-63
2023/07/01 01:52:01;;;;;;;6.80;5.70;;;;;;;23.18;66.76;99019.34;5034678;28;20200;-64
2023/07/01 01:54:30;;;;;;;5.63;5.27;;;;;;;23.00;67.21;99014.69;5035604;28;20194;-64
2023/07/01 01:56:57;;;;;;;5.97;5.57;;;;;;;22.80;68.95;99023.03;5034789;28;20706;-63
2023/07/01 01:59:24;;;;;;;6.47;5.97;;;;;;;22.71;68.42;99023.94;5035099;28;20255;-64
2023/07/01 02:01:53;;;;;;;5.93;5.63;;;;;;;22.62;69.19;99031.06;5033782;28;20256;-64
2023/07/01 02:04:19;;;;;;;5.53;5.17;;;;;;;22.53;69.33;99030.84;5034644;28;20245;-64
2023/07/01 02:06:46;;;;;;;6.50;6.10;;;;;;;22.45;69.55;99031.44;5034301;28;20195;-64
2023/07/01 02:09:13;;;;;;;6.67;6.17;;;;;;;22.41;69.77;99035.00;5034707;28;20252;-64
2023/07/01 02:11:39;;;;;;;5.80;5.50;;;;;;;22.21;71.07;99033.25;5034769;28;20256;-63
2023/07/01 02:14:06;;;;;;;5.67;5.37;;;;;;;22.11;71.87;99040.63;5034600;28;20607;-64
2023/07/01 02:16:36;;;;;;;6.13;5.63;;;;;;;22.00;72.35;99033.66;5033977;28;20218;-64
2023/07/01 02:19:04;;;;;;;6.13;5.73;;;;;;;21.93;73.07;99028.56;5034763;28;20193;-64
2023/07/01 02:21:31;;;;;;;6.57;5.93;;;;;;;21.86;72.05;99022.69;5034279;28;20201;-64
2023/07/01 02:23:58;;;;;;;6.30;5.90;;;;;;;21.91;71.87;99019.13;5034436;28;20323;-65
2023/07/01 02:26:25;;;;;;;6.50;6.00;;;;;;;22.01;72.90;99014.47;5019581;28;20267;-65
2023/07/01 02:28:52;;;;;;;6.07;5.67;;;;;;;22.30;71.79;99022.63;5034327;28;20247;-65
2023/07/01 02:31:19;;;;;;;7.30;5.73;;;;;;;22.54;70.83;99027.03;5034290;28;20647;-65
2023/07/01 02:33:46;;;;;;;29.33;7.33;;;;;;;22.78;68.64;99029.81;5034155;28;20195;-63
2023/07/01 02:36:14;;;;;;;5.70;5.20;;;;;;;22.94;69.19;99023.13;5033789;28;20198;-64
2023/07/01 02:38:40;;;;;;;6.10;5.60;;;;;;;23.13;67.30;99026.72;5034085;28;20260;-64
2023/07/01 02:41:07;;;;;;;6.13;5.73;;;;;;;23.11;67.69;99029.72;5034123;28;20592;-64
2023/07/01 02:43:34;;;;;;;6.20;5.60;;;;;;;23.04;67.40;99023.03;5034258;28;20204;-64
2023/07/01 02:46:01;;;;;;;7.17;5.80;;;;;;;22.93;68.21;99033.19;5033419;28;20253;-66
2023/07/01 02:48:28;;;;;;;9.97;6.23;;;;;;;22.77;68.24;99029.00;5034296;28;20199;-64
2023/07/01 02:50:54;;;;;;;6.27;5.77;;;;;;;22.64;69.63;99026.97;5034211;28;20199;-64
2023/07/01 02:53:22;;;;;;;5.53;5.13;;;;;;;22.60;70.37;99033.22;5034062;28;20248;-65
2023/07/01 02:55:49;;;;;;;6.10;5.20;;;;;;;22.73;70.17;99032.56;5033191;28;20678;-65
2023/07/01 02:58:16;;;;;;;5.70;5.37;;;;;;;23.03;68.68;99033.06;5032826;28;20710;-65
2023/07/01 03:00:42;;;;;;;5.93;5.40;;;;;;;23.22;66.92;99036.69;5034338;28;20196;-64
2023/07/01 03:03:09;;;;;;;7.10;5.77;;;;;;;23.27;67.44;99042.03;5033980;28;20201;-64
2023/07/01 03:05:36;;;;;;;5.70;5.30;;;;;;;23.34;67.54;99033.53;5033260;28;20225;-64
2023/07/01 03:08:04;;;;;;;5.23;4.93;;;;;;;23.36;66.68;99037.56;5033910;28;20198;-65
2023/07/01 03:10:32;;;;;;;14.07;6.43;;;;;;;23.41;66.49;99032.13;5033569;28;20224;-64
2023/07/01 03:12:59;;;;;;;6.87;6.10;;;;;;;23.49;65.97;99036.88;5033960;28;20249;-64
2023/07/01 03:15:26;;;;;;;5.40;5.00;;;;;;;23.68;66.55;99039.63;5033195;28;20575;-64
2023/07/01 03:17:53;;;;;;;7.40;6.40;;;;;;;24.02;64.55;99029.41;5033302;28;20228;-64
2023/07/01 03:20:23;;;;;;;6.07;5.50;;;;;;;24.28;62.99;99028.72;5033101;28;20349;-64
2023/07/01 03:22:50;;;;;;;5.40;5.00;;;;;;;24.39;62.82;99018.50;5033229;28;20628;-65
2023/07/01 03:25:17;;;;;;;5.77;5.30;;;;;;;24.41;62.77;99027.94;5032487;28;20664;-64
2023/07/01 03:27:46;;;;;;;6.03;5.40;;;;;;;24.46;61.60;99027.06;5033064;28;20685;-64
2023/07/01 03:30:14;;;;;;;6.40;5.13;;;;;;;24.48;62.46;99022.94;5033011;28;20673;-64
2023/07/01 03:32:42;;;;;;;5.73;5.40;;;;;;;24.42;63.16;99021.41;5032934;28;20696;-64
2023/07/01 03:35:10;;;;;;;6.37;5.77;;;;;;;24.31;61.21;99017.28;5033262;28;20263;-64
2023/07/01 03:37:36;;;;;;;5.17;4.87;;;;;;;24.17;63.41;99021.81;5032737;28;20224;-63
2023/07/01 03:40:04;;;;;;;5.43;4.93;;;;;;;24.13;63.53;99026.22;5032962;28;20254;-63
2023/07/01 03:42:31;;;;;;;5.60;5.30;;;;;;;24.22;63.14;99034.53;5032106;28;20196;-64
2023/07/01 03:44:59;;;;;;;6.93;5.20;;;;;;;24.34;63.12;99038.38;5032561;28;20255;-64
2023/07/01 03:47:26;;;;;;;7.00;5.20;;;;;;;24.62;60.80;99042.81;5032680;28;20204;-64
2023/07/01 03:49:52;;;;;;;5.93;5.57;;;;;;;24.51;60.57;99041.34;5032665;28;20665;-64
2023/07/01 03:52:19;;;;;;;5.50;5.10;;;;;;;24.40;60.73;99037.22;5032562;28;20254;-64
2023/07/01 03:54:46;;;;;;;5.80;5.40;;;;;;;24.21;61.49;99038.31;5013137;28;20287;-64
2023/07/01 03:57:13;;;;;;;5.93;5.60;;;;;;;24.05;61.88;99035.03;5013261;28;20228;-63
2023/07/01 03:59:40;;;;;;;5.77;5.47;;;;;;;23.69;62.37;99036.59;5013004;28;20200;-64
2023/07/01 04:02:08;;;;;;;5.57;5.27;;;;;;;23.45;63.68;99040.47;5012736;28;20193;-64
2023/07/01 04:04:35;;;;;;;6.57;6.00;;;;;;;23.29;64.20;99031.72;5030911;28;20741;-63
2023/07/01 04:07:01;;;;;;;5.70;5.23;;;;;;;23.83;63.10;99037.50;5032551;28;20202;-64
2023/07/01 04:09:29;;;;;;;5.80;5.40;;;;;;;24.75;59.33;99042.03;5032111;28;20195;-64
2023/07/01 04:11:55;;;;;;;4.67;4.47;;;;;;;25.63;57.09;99046.38;5032647;28;20294;-64
2023/07/01 04:14:23;;;;;;;8.67;4.57;;;;;;;26.54;53.69;99043.16;5031430;28;20196;-65
2023/07/01 04:16:50;;;;;;;9.80;4.63;;;;;;;27.42;50.55;99056.66;5032494;28;20284;-64
2023/07/01 04:19:18;;;;;;;8.30;4.57;;;;;;;28.22;48.29;99054.25;5032278;28;20263;-64
2023/07/01 04:21:44;;;;;;;5.23;4.50;;;;;;;28.96;44.72;99056.41;5032408;28;20197;-64
2023/07/01 04:24:11;;;;;;;4.80;4.33;;;;;;;29.70;42.04;99058.72;5031133;28;20185;-64
2023/07/01 04:26:38;;;;;;;4.20;3.90;;;;;;;29.86;41.72;99054.25;5032056;28;20653;-64
2023/07/01 04:29:05;;;;;;;4.10;3.80;;;;;;;30.24;40.90;99064.00;5032238;28;20640;-63
2023/07/01 04:31:32;;;;;;;5.40;3.87;;;;;;;30.55;39.24;99064.38;5032199;28;20241;-63
2023/07/01 04:33:59;;;;;;;4.10;3.80;;;;;;;30.81;38.59;99078.66;5031357;28;20189;-64
2023/07/01 04:36:27;;;;;;;4.30;4.00;;;;;;;30.95;38.12;99076.41;5031440;28;20185;-65
2023/07/01 04:38:53;;;;;;;4.00;3.77;;;;;;;31.11;37.38;99082.84;5031087;28;20274;-66
2023/07/01 04:41:20;;;;;;;3.80;3.50;;;;;;;31.27;37.16;99075.59;5031843;28;20211;-64
2023/07/01 04:43:47;;;;;;;3.53;3.37;;;;;;;31.34;37.27;99080.50;5030653;28;20280;-64
2023/07/01 04:46:14;;;;;;;3.83;3.50;;;;;;;31.67;36.53;99078.47;5031170;28;20216;-64
2023/07/01 04:48:40;;;;;;;11.80;4.47;;;;;;;31.57;36.37;99084.41;5031330;28;20275;-64
2023/07/01 04:51:07;;;;;;;3.87;3.60;;;;;;;32.08;36.23;99084.50;5031498;28;20190;-64
2023/07/01 04:53:38;;;;;;;4.00;3.70;;;;;;;32.06;35.99;99070.31;5030396;28;20209;-63
2023/07/01 04:56:05;;;;;;;3.37;3.17;;;;;;;32.01;36.65;99078.78;5031514;28;20185;-64
2023/07/01 04:58:32;;;;;;;3.70;3.50;;;;;;;32.23;35.87;99070.06;5031154;28;20224;-70
2023/07/01 05:00:59;;;;;;;3.40;3.20;;;;;;;32.60;35.26;99070.72;5031465;28;20244;-69
2023/07/01 05:03:25;;;;;;;4.23;3.77;;;;;;;33.22;33.63;99066.16;5029388;28;20189;-68
2023/07/01 05:05:52;;;;;;;3.60;3.30;;;;;;;33.78;32.95;99074.22;5031503;28;20751;-70
2023/07/01 05:08:19;;;;;;;3.53;3.23;;;;;;;34.34;32.24;99059.00;5031803;28;20201;-70
2023/07/01 05:10:47;;;;;;;3.93;3.07;;;;;;;34.83;31.12;99071.06;5031532;28;20205;-69
2023/07/01 05:13:14;;;;;;;4.25;2.90;;;;;;;34.96;30.75;99066.94;5030819;28;20189;-68
2023/07/01 05:15:40;;;;;;;6.43;2.95;;;;;;;35.22;30.90;99078.88;5031608;28;20665;-67
2023/07/01 05:18:07;;;;;;;4.88;3.85;;;;;;;35.57;29.83;99071.22;5031561;28;20221;-67
2023/07/01 05:20:34;;;;;;;6.30;3.10;;;;;;;35.23;30.68;99055.59;5031311;28;20216;-68
2023/07/01 05:23:01;;;;;;;3.90;3.30;;;;;;;35.53;30.41;99067.59;5034685;28;20190;-66
2023/07/01 05:25:27;;;;;;;3.13;2.90;;;;;;;35.37;30.35;99063.38;5035557;28;20246;-67
2023/07/01 05:27:55;;;;;;;3.55;3.22;;;;;;;35.10;30.52;99070.78;5035610;28;20592;-65
2023/07/01 05:30:22;;;;;;;3.47;3.22;;;;;;;35.58;30.36;99069.22;5035674;28;20254;-67
2023/07/01 05:32:49;;;;;;;5.78;3.08;;;;;;;36.29;29.11;99075.47;5034835;28;20217;-69
2023/07/01 05:35:16;;;;;;;7.43;2.92;;;;;;;35.75;29.48;99066.78;5035234;28;20554;-73
2023/07/01 05:37:42;;;;;;;8.20;2.95;;;;;;;35.06;31.28;99063.56;5035363;28;20704;-72
2023/07/01 05:40:11;;;;;;;3.63;3.28;;;;;;;35.03;30.95;99069.84;5035273;28;20219;-66
2023/07/01 05:42:38;;;;;;;4.70;3.20;;;;;;;35.11;31.38;99057.78;5034150;28;20190;-67
2023/07/01 05:45:07;;;;;;;4.30;3.17;;;;;;;35.25;31.27;99063.53;5034595;28;20201;-66
2023/07/01 05:47:34;;;;;;;3.80;2.95;;;;;;;35.29;31.05;99065.22;5035127;28;20263;-65
2023/07/01 05:50:01;;;;;;;4.45;3.00;;;;;;;35.22;32.02;99056.78;5034421;28;20198;-66
2023/07/01 05:52:27;;;;;;;5.57;3.60;;;;;;;35.23;31.02;99055.59;5034393;28;20742;-67
2023/07/01 05:54:54;;;;;;;3.40;3.10;;;;;;;35.22;31.15;99056.78;5034958;28;20193;-66
2023/07/01 05:57:21;;;;;;;3.55;3.25;;;;;;;35.81;30.66;99056.19;5034950;28;20701;-68
2023/07/01 05:59:47;;;;;;;10.15;3.30;;;;;;;34.97;32.99;99054.75;5035270;28;20560;-67
2023/07/01 06:02:15;;;;;;;3.38;3.00;;;;;;;35.14;32.64;99054.25;5033675;28;20193;-68
2023/07/01 06:04:42;;;;;;;3.05;2.95;;;;;;;35.31;30.54;99070.38;5035148;28;20255;-65
2023/07/01 06:07:09;;;;;;;3.50;3.20;;;;;;;33.55;32.49;99056.78;5015071;28;20198;-66
2023/07/01 06:09:35;;;;;;;4.90;3.13;;;;;;;33.21;33.32;99050.81;5015006;28;20674;-67
2023/07/01 06:12:02;;;;;;;8.68;3.65;;;;;;;33.12;35.50;99052.13;5033292;28;20560;-66
2023/07/01 06:14:29;;;;;;;3.88;3.30;;;;;;;33.54;32.77;99055.97;5034652;28;20194;-66
2023/07/01 06:16:55;;;;;;;11.40;3.55;;;;;;;34.03;32.46;99057.13;5034625;28;20193;-66
2023/07/01 06:19:23;;;;;;;4.22;3.63;;;;;;;33.08;33.53;99052.03;5033292;28;20257;-66
2023/07/01 06:21:50;;;;;;;3.65;3.30;;;;;;;33.46;34.24;99054.19;5033378;28;20198;-67
2023/07/01 06:24:17;;;;;;;4.05;3.70;;;;;;;33.24;33.21;99055.59;5033547;28;20620;-66
2023/07/01 06:26:43;;;;;;;18.05;4.75;;;;;;;33.26;33.20;99064.31;5034786;28;20279;-67
2023/07/01 06:29:10;;;;;;;13.53;4.53;;;;;;;33.49;33.76;99063.69;5034308;28;20201;-67
2023/07/01 06:31:37;;;;;;;5.22;3.42;;;;;;;33.97;33.52;99071.56;5033671;28;20221;-66
2023/07/01 06:34:12;;;;;;;8.07;3.25;;;;;;;34.28;33.03;99068.69;5032936;28;20602;-67
2023/07/01 06:36:40;;;;;;;3.97;3.20;;;;;;;34.37;32.72;99070.09;5032508;28;20188;-67
2023/07/01 06:39:06;;;;;;;14.25;4.30;;;;;;;34.38;32.43;99070.91;5033027;28;20221;-66
2023/07/01 06:41:33;;;;;;;4.00;3.70;;;;;;;34.24;31.54;99067.81;5033318;28;20189;-66
2023/07/01 06:44:00;;;;;;;3.38;3.13;;;;;;;34.47;31.16;99072.28;5033492;28;20656;-66
2023/07/01 06:46:26;;;;;;;6.53;3.65;;;;;;;34.92;30.69;99066.09;5033500;28;20189;-66
2023/07/01 06:48:53;;;;;;;21.38;4.43;;;;;;;34.40;31.57;99063.88;5034089;28;20193;-66
2023/07/01 06:51:20;;;;;;;3.58;3.28;;;;;;;34.63;31.18;99066.69;5033405;28;20252;-66
2023/07/01 06:53:48;;;;;;;3.55;3.17;;;;;;;34.06;32.25;99061.94;5034494;28;20193;-65
2023/07/01 06:56:15;;;;;;;2.85;2.72;;;;;;;34.35;31.66;99055.06;5034144;28;20256;-66
2023/07/01 06:58:42;;;;;;;3.60;3.00;;;;;;;33.99;31.76;99053.50;5034243;28;20263;-65
2023/07/01 07:01:08;;;;;;;4.03;3.38;;;;;;;34.33;32.05;99046.38;5033193;28;20197;-66
2023/07/01 07:03:39;;;;;;;6.43;3.30;;;;;;;34.00;31.84;99037.75;5033746;28;20204;-65
2023/07/01 07:06:06;;;;;;;3.13;2.92;;;;;;;34.14;31.67;99038.06;5034157;28;20186;-65
2023/07/01 07:08:32;;;;;;;11.68;3.45;;;;;;;34.53;31.89;99048.75;5034011;28;20273;-65
2023/07/01 07:11:00;;;;;;;3.95;3.25;;;;;;;34.48;31.37;99048.25;5033104;28;20201;-65
2023/07/01 07:13:27;;;;;;;6.80;3.40;;;;;;;33.63;31.32;99040.03;5033637;28;20198;-66
2023/07/01 07:15:54;;;;;;;3.33;3.20;;;;;;;33.68;32.19;99041.72;5033867;28;20247;-65
2023/07/01 07:18:21;;;;;;;3.58;3.35;;;;;;;33.37;31.98;99031.56;5033743;28;20229;-65
2023/07/01 07:20:47;;;;;;;4.20;3.38;;;;;;;33.48;31.94;99037.31;5033287;28;20255;-65
2023/07/01 07:23:14;;;;;;;3.33;3.00;;;;;;;33.42;33.03;99030.47;5033821;28;20197;-65
2023/07/01 07:25:41;;;;;;;6.50;3.03;;;;;;;33.91;32.41;99028.88;5033609;28;20249;-65
2023/07/01 07:28:09;;;;;;;10.82;3.22;;;;;;;34.36;31.81;99032.66;5033311;28;20197;-65
2023/07/01 07:30:37;;;;;;;3.30;3.00;;;;;;;34.48;31.39;99035.25;5032872;28;20198;-65
2023/07/01 07:33:03;;;;;;;55.58;6.57;;;;;;;34.81;31.06;99032.75;5033200;28;20647;-65
2023/07/01 07:35:30;;;;;;;4.85;3.38;;;;;;;35.02;30.36;99037.88;5033420;28;20201;-65
2023/07/01 07:37:57;;;;;;;3.38;3.15;;;;;;;35.23;29.90;99035.50;5033414;28;20197;-65
2023/07/01 07:40:24;;;;;;;3.00;2.85;;;;;;;35.31;29.57;99029.72;5032016;28;20193;-65
2023/07/01 07:42:53;;;;;;;5.50;3.05;;;;;;;35.29;29.26;99028.50;5033352;28;20197;-65
2023/07/01 07:45:22;;;;;;;3.13;2.72;;;;;;;35.37;30.77;99024.69;5033204;28;20201;-66
2023/07/01 07:47:48;;;;;;;2.45;2.35;;;;;;;35.46;29.38;99023.25;5033085;28;20197;-65
2023/07/01 07:50:15;;;;;;;4.60;3.17;;;;;;;35.62;29.88;99036.91;5032817;28;20650;-66
2023/07/01 07:52:42;;;;;;;6.25;2.95;;;;;;;35.65;28.78;99030.66;5033032;28;20205;-66
2023/07/01 07:55:09;;;;;;;3.67;2.88;;;;;;;35.70;29.78;99017.31;5032772;28;20791;-66
2023/07/01 07:57:37;;;;;;;3.05;2.85;;;;;;;35.77;29.43;99011.91;5032939;28;20300;-66
2023/07/01 08:00:05;;;;;;;3.20;2.90;;;;;;;35.80;28.85;99013.91;5032504;28;20365;-66
2023/07/01 08:02:33;;;;;;;10.18;3.70;;;;;;;35.90;28.76;99020.78;5032521;28;20622;-66
2023/07/01 08:05:00;;;;;;;4.05;3.38;;;;;;;35.17;29.02;99018.41;5032938;28;20190;-66
2023/07/01 08:07:26;;;;;;;3.90;3.70;;;;;;;35.57;28.79;99017.91;5032797;28;20251;-65
2023/07/01 08:09:53;;;;;;;3.35;3.20;;;;;;;35.72;29.00;99005.88;5031902;28;20215;-66
2023/07/01 08:12:20;;;;;;;5.80;3.15;;;;;;;35.75;28.42;99007.91;5032312;28;20198;-66
2023/07/01 08:14:46;;;;;;;3.00;2.90;;;;;;;35.83;28.53;99004.06;5032782;28;20629;-66
2023/07/01 08:17:13;;;;;;;73.20;6.60;;;;;;;35.97;28.39;98996.00;5032613;28;20253;-66
2023/07/01 08:19:41;;;;;;;9.20;3.90;;;;;;;35.77;28.85;98994.53;5031855;28;20286;-66
2023/07/01 08:22:08;;;;;;;5.65;3.70;;;;;;;35.58;29.47;98986.31;5032214;28;20635;-64
2023/07/01 08:24:34;;;;;;;3.65;3.35;;;;;;;35.53;28.45;98989.41;5032500;28;20618;-64
2023/07/01 08:27:02;;;;;;;3.88;3.10;;;;;;;35.65;27.70;98991.97;5031733;28;20197;-67
2023/07/01 08:29:28;;;;;;;5.22;3.65;;;;;;;35.87;27.88;98993.88;5032223;28;20243;-65
2023/07/01 08:31:55;;;;;;;3.90;3.40;;;;;;;35.92;27.61;98982.47;5032276;28;20229;-65
2023/07/01 08:34:22;;;;;;;4.85;3.42;;;;;;;35.52;29.19;98977.53;5032081;28;20190;-65
2023/07/01 08:36:50;;;;;;;8.43;3.55;;;;;;;35.60;29.00;98993.06;5031500;28;20244;-65
2023/07/01 08:39:17;;;;;;;4.70;2.88;;;;;;;35.61;28.79;98980.88;5031928;28;20696;-65
2023/07/01 08:41:51;;;;;;;3.97;3.20;;;;;;;35.77;28.87;98977.94;5032200;28;20197;-66
2023/07/01 08:44:19;;;;;;;9.75;4.07;;;;;;;35.52;29.54;98976.78;5031869;28;20649;-66
2023/07/01 08:46:48;;;;;;;24.65;4.63;;;;;;;35.78;29.06;98976.75;5031755;28;20623;-65
2023/07/01 08:49:17;;;;;;;6.15;3.22;;;;;;;35.47;29.11;98969.59;5031900;28;20665;-65
2023/07/01 08:51:45;;;;;;;6.82;4.13;;;;;;;35.63;27.72;98970.22;5032115;28;20232;-65
2023/07/01 08:54:14;;;;;;;4.30;3.63;;;;;;;35.40;29.02;98968.69;5032184;28;20239;-65
2023/07/01 08:56:41;;;;;;;3.72;3.40;;;;;;;35.65;27.97;98976.19;5031003;28;20193;-65
2023/07/01 08:59:08;;;;;;;4.43;3.30;;;;;;;35.86;27.25;98970.16;5032170;28;20225;-65
2023/07/01 09:01:37;;;;;;;6.22;3.63;;;;;;;35.97;27.92;98965.56;5031970;28;20200;-66
2023/07/01 09:04:04;;;;;;;7.03;3.60;;;;;;;36.15;27.33;98961.84;5031350;28;20193;-65
2023/07/01 09:06:31;;;;;;;3.97;3.78;;;;;;;36.24;27.73;98969.88;5031109;28;20193;-65
2023/07/01 09:08:58;;;;;;;3.15;3.00;;;;;;;36.42;27.10;98957.03;5031574;28;20196;-65
2023/07/01 09:11:26;;;;;;;3.80;3.30;;;;;;;36.45;27.39;98950.72;5031428;28;20616;-66
2023/07/01 09:13:56;;;;;;;3.72;3.42;;;;;;;36.26;27.97;98956.47;5031505;28;20251;-65
2023/07/01 09:16:32;;;;;;;4.20;3.55;;;;;;;35.86;27.89;98948.03;5032164;28;20288;-65
2023/07/01 09:19:04;;;;;;;4.03;3.60;;;;;;;35.85;28.22;98947.22;5031750;28;20204;-65
2023/07/01 09:21:32;;;;;;;5.47;3.70;;;;;;;35.78;29.14;98935.28;5031467;28;20192;-66
2023/07/01 09:23:59;;;;;;;5.50;4.18;;;;;;;34.62;31.07;98918.84;5031814;28;20638;-65
2023/07/01 09:26:30;;;;;;;5.57;4.20;;;;;;;34.49;31.71;98931.22;5031923;28;20201;-65
2023/07/01 09:28:58;;;;;;;4.43;4.07;;;;;;;35.05;30.82;98934.97;5031834;28;20189;-65
2023/07/01 09:31:25;;;;;;;5.03;4.13;;;;;;;35.12;30.36;98930.34;5031560;28;20286;-65
2023/07/01 09:34:01;;;;;;;6.13;4.00;;;;;;;35.08;30.72;98923.19;5031371;28;20225;-65
2023/07/01 09:36:28;;;;;;;5.13;3.83;;;;;;;33.90;32.16;98920.59;5031444;28;20665;-65
2023/07/01 09:38:56;;;;;;;5.10;4.50;;;;;;;34.04;31.74;98917.31;5031473;28;20572;-65
2023/07/01 09:41:25;;;;;;;4.28;3.97;;;;;;;34.24;31.32;98913.34;5031701;28;20255;-65
2023/07/01 09:43:54;;;;;;;4.32;4.10;;;;;;;34.49;30.94;98918.19;5030943;28;20221;-65
2023/07/01 09:46:21;;;;;;;7.60;4.07;;;;;;;34.31;31.68;98910.78;5031665;28;20197;-65
2023/07/01 09:48:52;;;;;;;4.88;3.67;;;;;;;34.46;31.10;98907.91;5031425;28;20198;-65
2023/07/01 09:51:20;;;;;;;4.88;3.47;;;;;;;34.70;30.57;98912.28;5031573;28;20285;-66
2023/07/01 09:53:47;;;;;;;4.95;3.30;;;;;;;34.99;30.48;98908.84;5030850;28;20193;-65
2023/07/01 09:56:16;;;;;;;5.28;3.45;;;;;;;33.83;31.28;98909.41;5031534;28;20267;-65
2023/07/01 09:58:44;;;;;;;3.42;3.13;;;;;;;34.36;29.80;98904.94;5031510;28;20200;-65
2023/07/01 10:01:14;;;;;;;5.70;3.30;;;;;;;34.32;29.22;98884.78;5031573;28;20209;-66
2023/07/01 10:03:41;;;;;;;3.42;3.13;;;;;;;34.06;29.02;98892.94;5031032;28;20197;-65
2023/07/01 10:06:08;;;;;;;4.15;3.10;;;;;;;33.68;29.92;98887.41;5031132;28;20716;-65
2023/07/01 10:08:35;;;;;;;3.42;3.13;;;;;;;33.23;30.97;98890.72;5034988;28;20252;-66
2023/07/01 10:11:06;;;;;;;4.93;3.42;;;;;;;33.75;30.08;98887.53;5034638;28;20193;-67
2023/07/01 10:13:38;;;;;;;3.70;3.40;;;;;;;34.03;30.52;98883.44;5035053;28;20244;-66
2023/07/01 10:16:07;;;;;;;3.95;3.65;;;;;;;34.15;30.78;98877.75;5035182;28;20192;-66
2023/07/01 10:18:36;;;;;;;3.20;3.00;;;;;;;33.30;32.38;98877.13;5034730;28;20197;-65
2023/07/01 10:21:28;;;;;;;4.75;3.50;;;;;;;32.98;32.32;98865.38;5034160;28;20255;-66
2023/07/01 10:23:56;;;;;;;4.00;3.50;;;;;;;33.65;33.02;98866.09;5029231;28;20649;-65
2023/07/01 10:26:47;;;;;;;3.80;3.40;;;;;;;33.85;32.84;98851.16;5034735;28;20259;-66
2023/07/01 10:29:38;;;;;;;4.10;3.58;;;;;;;33.64;33.38;98848.75;5034729;28;20194;-66
2023/07/01 10:32:30;;;;;;;4.15;3.67;;;;;;;33.48;33.28;98845.28;5034016;28;20634;-65
2023/07/01 10:35:18;;;;;;;3.33;3.15;;;;;;;32.76;33.10;98833.00;5034604;28;20276;-65
2023/07/01 10:38:05;;;;;;;3.50;3.30;;;;;;;33.18;32.31;98834.00;5034679;28;20190;-66
2023/07/01 10:40:46;;;;;;;3.90;3.40;;;;;;;33.66;31.80;98829.91;5033761;28;20213;-65
2023/07/01 10:43:25;;;;;;;3.90;3.70;;;;;;;33.66;31.07;98826.34;5034378;28;20201;-66
2023/07/01 10:46:12;;;;;;;5.93;3.40;;;;;;;33.49;31.78;98818.53;5034201;28;20239;-66
2023/07/01 10:48:40;;;;;;;3.35;3.15;;;;;;;33.52;31.16;98818.63;5034301;28;20185;-66
2023/07/01 10:51:07;;;;;;;3.10;3.00;;;;;;;33.59;31.92;98818.75;5049364;28;20197;-65
2023/07/01 10:53:56;;;;;;;3.55;3.40;;;;;;;33.59;31.35;98801.44;5033932;28;20197;-66
2023/07/01 10:56:25;;;;;;;3.00;2.90;;;;;;;33.77;30.29;98802.56;5034227;28;20189;-67
2023/07/01 10:59:21;;;;;;;3.13;2.72;;;;;;;34.07;30.19;98800.78;5033056;28;20681;-67
2023/07/01 11:01:49;;;;;;;2.83;2.72;;;;;;;34.18;27.78;98804.53;5033734;28;20669;-66
2023/07/01 11:04:18;;;;;;;2.97;2.78;;;;;;;33.95;28.94;98787.16;5033687;28;20255;-67
2023/07/01 11:06:49;;;;;;;5.50;2.83;;;;;;;34.05;29.58;98781.06;5033650;28;20722;-65
2023/07/01 11:09:16;;;;;;;2.65;2.45;;;;;;;34.11;26.57;98785.09;5032915;28;20193;-65
2023/07/01 11:11:44;;;;;;;2.45;2.35;;;;;;;34.42;26.29;98779.34;5033703;28;20703;-65
2023/07/01 11:14:12;;;;;;;2.60;2.50;;;;;;;34.16;26.99;98776.53;5033858;28;20206;-66
2023/07/01 11:16:40;;;;;;;2.47;2.30;;;;;;;34.42;25.85;98780.13;5033574;28;20259;-65
2023/07/01 11:19:08;;;;;;;2.40;2.30;;;;;;;34.57;24.79;98770.16;5032339;28;20627;-66
2023/07/01 11:21:35;;;;;;;2.38;2.28;;;;;;;33.67;26.75;98759.09;5033489;28;20251;-66
2023/07/01 11:24:04;;;;;;;3.13;2.83;;;;;;;33.60;26.67;98772.72;5033695;28;20251;-66
2023/07/01 11:26:32;;;;;;;2.70;2.50;;;;;;;33.77;25.65;98769.50;5033351;28;20259;-67
2023/07/01 11:29:00;;;;;;;3.00;2.90;;;;;;;33.96;25.59;98759.25;5032845;28;20190;-66
2023/07/01 11:31:32;;;;;;;5.20;2.97;;;;;;;34.00;26.12;98770.34;5033334;28;20226;-66
2023/07/01 11:33:59;;;;;;;2.85;2.45;;;;;;;34.17;24.93;98756.06;5033224;28;20323;-66
2023/07/01 11:36:35;;;;;;;2.70;2.60;;;;;;;34.13;25.29;98757.97;5033137;28;20201;-66
2023/07/01 11:39:05;;;;;;;2.47;2.38;;;;;;;34.32;25.18;98758.72;5032020;28;20740;-66